Kaami — C6VO9 — position and weather

sailwx.info

Track history (hours):
 
Tides and Currents Weather Stations Pressure Air Temp Water Temp Dewpoint Dewpoint Depression Visibility Wind Speed Wind Dir Waves Ship Positions

Kaami

Last reported at 2014-Jul-21 19:07 UTC. Time now 2014-Jul-22 23:13 UTC.
Position N 53°34' E 014°36'.

Length 90 m; draft 5.8 m.

Type: Cargo ship. MMSI: 308542000.

Date/timePositionNaut miles runAvg speedWind from/ knotsBaromVisibWave heightAir tempDewpointWater temp
2014-Jul-21 19:07N 53°34' E 014°36'3 5.8
2014-Jul-21 18:33N 53°37' E 014°35'9 8.7
2014-Jul-21 17:33N 53°44' E 014°26'9 8.9
2014-Jul-21 16:33N 53°51' E 014°17'7 6.5
2014-Jul-21 15:33N 53°57' E 014°15'0 0.5
2014-Jul-21 14:34N 53°58' E 014°14'0 0.0
2014-Jul-21 13:33N 53°58' E 014°14'0 0.0
2014-Jul-21 12:33N 53°58' E 014°14'0 0.0
2014-Jul-21 11:33N 53°58' E 014°14'0 0.0
2014-Jul-21 10:33N 53°58' E 014°14'0 0.0
2014-Jul-21 09:33N 53°58' E 014°14'0 0.0
2014-Jul-21 08:33N 53°58' E 014°14'0 0.0
2014-Jul-21 07:33N 53°58' E 014°14'0 0.0
2014-Jul-21 06:33N 53°58' E 014°14'0 0.2
2014-Jul-21 05:33N 53°58' E 014°14'7 7.0
2014-Jul-21 04:33N 54°05' E 014°14'8 8.3
2014-Jul-21 03:33N 54°13' E 014°11'7 7.1
2014-Jul-21 02:33N 54°18' E 014°03'7 6.9
2014-Jul-21 01:33N 54°23' E 013°55'7 7.0
2014-Jul-21 00:33N 54°29' E 013°49'7 6.6
2014-Jul-20 23:33N 54°35' E 013°44'6 6.2
2014-Jul-20 22:33N 54°40' E 013°37'6 6.3
2014-Jul-20 21:33N 54°44' E 013°29'6 6.5
2014-Jul-20 20:33N 54°44' E 013°17'7 7.2
2014-Jul-20 19:33N 54°44' E 013°05'8 8.0
2014-Jul-20 18:33N 54°45' E 012°51'8 7.6
2014-Jul-20 17:33N 54°43' E 012°39'8 8.4
2014-Jul-20 16:33N 54°37' E 012°29'8 7.9
2014-Jul-20 15:33N 54°32' E 012°18'8 7.9
2014-Jul-20 14:33N 54°25' E 012°11'7 7.5
2014-Jul-20 13:33N 54°24' E 011°58'8 7.8
2014-Jul-20 12:33N 54°25' E 011°45'8 7.8
2014-Jul-20 11:33N 54°29' E 011°33'8 7.7
2014-Jul-20 10:33N 54°32' E 011°21'7 6.9
2014-Jul-20 09:33N 54°35' E 011°11'8 7.6
2014-Jul-20 08:33N 54°35' E 010°57'9 8.6
2014-Jul-20 07:33N 54°34' E 010°43'8 8.2
2014-Jul-20 06:33N 54°32' E 010°29'8 8.2
2014-Jul-20 05:33N 54°28' E 010°16'8 5.2
2014-Jul-20 04:04N 54°22' E 010°08'1 1.9
2014-Jul-20 03:33N 54°22' E 010°07'10 6.7
2014-Jul-20 02:03N 54°22' E 009°50'4 8.1
2014-Jul-20 01:33N 54°20' E 009°44'8 7.6
2014-Jul-20 00:33N 54°14' E 009°36'8 8.1
2014-Jul-19 23:33N 54°10' E 009°24'7 6.8
2014-Jul-19 22:33N 54°04' E 009°19'6 5.7
2014-Jul-19 21:28N 53°58' E 009°15'6 5.9
2014-Jul-19 20:30N 53°54' E 009°09'2 1.9
2014-Jul-19 19:33N 53°53' E 009°06'7 7.1
2014-Jul-19 18:33N 53°51' E 008°55'9 9.0
2014-Jul-19 17:33N 53°55' E 008°41'9 9.3
2014-Jul-19 16:33N 53°59' E 008°27'10 9.4
2014-Jul-19 15:33N 53°60' E 008°11'51 9.9
2014-Jul-19 10:21N 53°48' E 006°46'7 8.5
2014-Jul-19 09:33N 53°46' E 006°35'8 7.7
2014-Jul-19 08:33N 53°44' E 006°22'7 6.9
2014-Jul-19 07:33N 53°42' E 006°11'7 6.9
2014-Jul-19 06:33N 53°40' E 006°00'7 6.8
2014-Jul-19 05:33N 53°38' E 005°49'7 7.1
2014-Jul-19 04:33N 53°36' E 005°38'7 7.4
2014-Jul-19 03:33N 53°34' E 005°26'8 7.7
2014-Jul-19 02:33N 53°31' E 005°14'8 8.2
2014-Jul-19 01:33N 53°28' E 005°01'9 8.8
2014-Jul-19 00:33N 53°25' E 004°48'9 8.6
2014-Jul-18 23:33N 53°18' E 004°39'10 9.9
2014-Jul-18 22:33N 53°09' E 004°31'1010.1
2014-Jul-18 21:33N 53°00' E 004°23'10 9.8
2014-Jul-18 20:33N 52°51' E 004°16'9 8.4
2014-Jul-18 19:32N 52°44' E 004°09'2 2.1
2014-Jul-18 18:31N 52°42' E 004°10'1 0.7
2014-Jul-18 17:33N 52°41' E 004°11'4 3.6
2014-Jul-18 16:33N 52°39' E 004°16'7 6.8
2014-Jul-18 15:33N 52°33' E 004°22'7 7.0
2014-Jul-18 14:34N 52°28' E 004°30'5 4.6
2014-Jul-18 13:33N 52°28' E 004°38'1 1.4
2014-Jul-18 12:32N 52°28' E 004°40'0 0.0
2014-Jul-18 11:32N 52°28' E 004°40'0 0.0
2014-Jul-18 10:32N 52°28' E 004°40'0 0.0
2014-Jul-18 09:32N 52°28' E 004°40'0 0.0
2014-Jul-18 08:32N 52°28' E 004°40'0 0.0
2014-Jul-18 07:29N 52°28' E 004°40'0 0.0
2014-Jul-18 06:32N 52°28' E 004°40'0 0.0
2014-Jul-18 05:32N 52°28' E 004°40'0 0.0
2014-Jul-18 04:32N 52°28' E 004°40'0 0.0
2014-Jul-18 03:32N 52°28' E 004°40'0 0.0
2014-Jul-18 02:32N 52°28' E 004°40'0 0.0
2014-Jul-18 01:32N 52°28' E 004°40'0 0.0
2014-Jul-18 00:32N 52°28' E 004°40'0 0.0
2014-Jul-17 23:32N 52°28' E 004°40'0 0.0
2014-Jul-17 22:32N 52°28' E 004°40'0 0.0
2014-Jul-17 21:32N 52°28' E 004°40'0 0.0
2014-Jul-17 20:32N 52°28' E 004°40'0 0.0
2014-Jul-17 19:32N 52°28' E 004°40'0 0.0
2014-Jul-17 18:29N 52°28' E 004°40'0 0.0
2014-Jul-17 17:29N 52°28' E 004°40'0 0.0
2014-Jul-17 16:32N 52°28' E 004°40'0 0.0
2014-Jul-17 15:31N 52°28' E 004°40'0 0.0
2014-Jul-17 14:31N 52°28' E 004°40'0 0.0
2014-Jul-17 13:28N 52°28' E 004°40'0 0.0
2014-Jul-17 12:31N 52°28' E 004°40'0 0.0
2014-Jul-17 11:31N 52°28' E 004°40'0 0.0
2014-Jul-17 10:31N 52°28' E 004°40'0 0.0
2014-Jul-17 09:31N 52°28' E 004°40'0 0.0
2014-Jul-17 08:31N 52°28' E 004°40'0 0.0
2014-Jul-17 07:31N 52°28' E 004°40'0 0.0
2014-Jul-17 06:31N 52°28' E 004°40'0 0.0
2014-Jul-17 05:31N 52°28' E 004°40'0 0.0
2014-Jul-17 04:31N 52°28' E 004°40'0 0.0
2014-Jul-17 03:31N 52°28' E 004°40'0 0.0
2014-Jul-17 02:31N 52°28' E 004°40'0 0.0
2014-Jul-17 01:31N 52°28' E 004°40'0 0.0
2014-Jul-17 00:31N 52°28' E 004°40'0 0.0
2014-Jul-16 23:31N 52°28' E 004°40'0 0.0
2014-Jul-16 22:31N 52°28' E 004°40'0 0.0
2014-Jul-16 21:31N 52°28' E 004°40'0 0.0
2014-Jul-16 20:31N 52°28' E 004°40'0 0.0
2014-Jul-16 19:31N 52°28' E 004°40'0 0.0
2014-Jul-16 18:31N 52°28' E 004°40'0 0.0
2014-Jul-16 17:31N 52°28' E 004°40'0 0.0
2014-Jul-16 16:31N 52°28' E 004°40'0 0.0
2014-Jul-16 15:31N 52°28' E 004°40'0 0.0
2014-Jul-16 14:31N 52°28' E 004°40'0 0.0
2014-Jul-16 13:28N 52°28' E 004°40'0 0.0
2014-Jul-16 12:31N 52°28' E 004°40'0 0.0
2014-Jul-16 11:31N 52°28' E 004°40'0 0.0
2014-Jul-16 10:31N 52°28' E 004°40'0 0.0
2014-Jul-16 09:31N 52°28' E 004°40'0 0.0
2014-Jul-16 08:31N 52°28' E 004°40'0 0.0
2014-Jul-16 07:31N 52°28' E 004°40'0 0.0
2014-Jul-16 06:33N 52°28' E 004°40'0 0.0
2014-Jul-16 05:33N 52°28' E 004°40'0 0.0
2014-Jul-16 04:33N 52°28' E 004°40'0 0.0
2014-Jul-16 03:33N 52°28' E 004°40'0 0.0
2014-Jul-16 02:33N 52°28' E 004°40'0 0.0
2014-Jul-16 01:33N 52°28' E 004°40'0 0.0
2014-Jul-16 00:33N 52°28' E 004°40'0 0.0
2014-Jul-15 23:33N 52°28' E 004°40'0 0.0
2014-Jul-15 22:33N 52°28' E 004°40'0 0.0
2014-Jul-15 21:33N 52°28' E 004°40'0 0.0
2014-Jul-15 20:33N 52°28' E 004°40'0 0.0
2014-Jul-15 19:33N 52°28' E 004°40'0 0.0
2014-Jul-15 18:33N 52°28' E 004°40'0 0.0
2014-Jul-15 17:33N 52°28' E 004°40'0 0.0
2014-Jul-15 16:33N 52°28' E 004°40'0 0.0
2014-Jul-15 15:33N 52°28' E 004°40'0 0.0
2014-Jul-15 14:33N 52°28' E 004°40'0 0.0
2014-Jul-15 13:33N 52°28' E 004°40'0 0.0
2014-Jul-15 12:33N 52°28' E 004°40'0 0.0
2014-Jul-15 11:33N 52°28' E 004°40'0 0.0
2014-Jul-15 10:33N 52°28' E 004°40'0 0.0
2014-Jul-15 09:33N 52°28' E 004°40'0 0.0
2014-Jul-15 08:33N 52°28' E 004°40'0 0.0
2014-Jul-15 07:33N 52°28' E 004°40'0 0.0
2014-Jul-15 06:33N 52°28' E 004°40'0 0.0
2014-Jul-15 05:33N 52°28' E 004°40'0 0.0
2014-Jul-15 04:33N 52°28' E 004°40'0 0.0
2014-Jul-15 03:33N 52°28' E 004°40'0 0.0
2014-Jul-15 02:33N 52°28' E 004°40'0 0.0
2014-Jul-15 01:33N 52°28' E 004°40'0 0.0
2014-Jul-15 00:33N 52°28' E 004°40'0 0.0
2014-Jul-14 23:33N 52°28' E 004°40'0 0.0
2014-Jul-14 22:33N 52°28' E 004°40'0 0.0
2014-Jul-14 21:33N 52°28' E 004°40'0 0.0
2014-Jul-14 20:32N 52°28' E 004°40'0 0.0
2014-Jul-14 19:32N 52°28' E 004°40'0 0.0
2014-Jul-14 18:32N 52°28' E 004°40'0 0.0
2014-Jul-14 17:32N 52°28' E 004°40'0 0.0
2014-Jul-14 16:32N 52°28' E 004°40'0 0.0
2014-Jul-14 15:32N 52°28' E 004°40'0 0.0
2014-Jul-14 14:32N 52°28' E 004°40'0 0.0
2014-Jul-14 13:29N 52°28' E 004°40'0 0.0
2014-Jul-14 12:32N 52°28' E 004°40'0 0.0
2014-Jul-14 11:32N 52°28' E 004°40'0 0.0
2014-Jul-14 10:32N 52°28' E 004°40'0 0.0
2014-Jul-14 09:32N 52°28' E 004°40'0 0.0
2014-Jul-14 08:32N 52°28' E 004°40'0 0.0
2014-Jul-14 07:32N 52°28' E 004°40'0 0.0
2014-Jul-14 06:29N 52°28' E 004°40'0 0.0
2014-Jul-14 05:32N 52°28' E 004°40'0 0.0
2014-Jul-14 04:32N 52°28' E 004°40'0 0.0
2014-Jul-14 03:32N 52°28' E 004°40'0 0.0
2014-Jul-14 02:29N 52°28' E 004°40'0 0.0
2014-Jul-14 01:32N 52°28' E 004°40'0 0.0
2014-Jul-14 00:32N 52°28' E 004°40'0 0.0
2014-Jul-13 23:32N 52°28' E 004°40'0 0.0
2014-Jul-13 22:32N 52°28' E 004°40'0 0.0
2014-Jul-13 21:32N 52°28' E 004°40'0 0.0
2014-Jul-13 20:32N 52°28' E 004°40'0 0.0
2014-Jul-13 19:32N 52°28' E 004°40'0 0.0
2014-Jul-13 18:32N 52°28' E 004°40'0 0.0
2014-Jul-13 17:32N 52°28' E 004°40'0 0.0
2014-Jul-13 16:32N 52°28' E 004°40'0 0.0
2014-Jul-13 15:32N 52°28' E 004°40'0 0.0
2014-Jul-13 14:32N 52°28' E 004°40'0 0.0
2014-Jul-13 13:32N 52°28' E 004°40'0 0.0
2014-Jul-13 12:32N 52°28' E 004°40'0 0.0
2014-Jul-13 11:31N 52°28' E 004°40'0 0.0
2014-Jul-13 10:31N 52°28' E 004°40'0 0.0
2014-Jul-13 09:31N 52°28' E 004°40'0 0.0
2014-Jul-13 08:31N 52°28' E 004°40'0 0.0
2014-Jul-13 07:31N 52°28' E 004°40'0 0.0
2014-Jul-13 06:31N 52°28' E 004°40'0 0.0
2014-Jul-13 05:31N 52°28' E 004°40'0 0.0
2014-Jul-13 04:28N 52°28' E 004°40'0 0.0
2014-Jul-13 03:31N 52°28' E 004°40'0 0.0
2014-Jul-13 02:31N 52°28' E 004°40'0 0.0
2014-Jul-13 01:28N 52°28' E 004°40'0 0.0
2014-Jul-13 00:31N 52°28' E 004°40'0 0.0
2014-Jul-12 23:31N 52°28' E 004°40'0 0.0
2014-Jul-12 22:31N 52°28' E 004°40'0 0.0
2014-Jul-12 21:31N 52°28' E 004°40'0 0.0
2014-Jul-12 20:31N 52°28' E 004°40'0 0.0
2014-Jul-12 19:31N 52°28' E 004°40'0 0.0
2014-Jul-12 18:31N 52°28' E 004°40'0 0.0
2014-Jul-12 17:31N 52°28' E 004°40'0 0.0
2014-Jul-12 16:31N 52°28' E 004°40'0 0.0
2014-Jul-12 15:31N 52°28' E 004°40'0 0.0
2014-Jul-12 14:31N 52°28' E 004°40'0 0.0
2014-Jul-12 13:31N 52°28' E 004°40'0 0.0
2014-Jul-12 12:31N 52°28' E 004°40'0 0.0
2014-Jul-12 11:31N 52°28' E 004°40'0 0.0
2014-Jul-12 10:31N 52°28' E 004°40'0 0.0
2014-Jul-12 09:31N 52°28' E 004°40'0 0.0
2014-Jul-12 08:31N 52°28' E 004°40'0 0.1
2014-Jul-12 07:33N 52°28' E 004°40'3 2.5
2014-Jul-12 06:33N 52°28' E 004°36'3 2.9
2014-Jul-12 05:33N 52°28' E 004°31'3 3.1
2014-Jul-12 04:33N 52°30' E 004°27'2 1.7
2014-Jul-12 03:33N 52°32' E 004°27'1 0.7
2014-Jul-12 02:33N 52°32' E 004°27'0 0.4
2014-Jul-12 01:33N 52°33' E 004°27'2 2.3
2014-Jul-12 00:33N 52°33' E 004°23'3 2.6
2014-Jul-11 23:33N 52°35' E 004°21'3 3.4
2014-Jul-11 22:33N 52°38' E 004°17'4 3.7
2014-Jul-11 21:33N 52°42' E 004°16'3 2.9
2014-Jul-11 20:28N 52°44' E 004°14'1 1.3
2014-Jul-11 19:32N 52°45' E 004°14'  
Track history (hours):
 
Tides and Currents Weather Stations Pressure Air Temp Water Temp Dewpoint Dewpoint Depression Visibility Wind Speed Wind Dir Waves Ship Positions

Kaami

Last reported at 2014-Jul-21 19:07 UTC. Time now 2014-Jul-22 23:13 UTC.
Position N 53°34' E 014°36'.

Length 90 m; draft 5.8 m.

Type: Cargo ship. MMSI: 308542000.

Date/timePositionNaut miles runAvg speedWind from/ knotsBaromVisibWave heightAir tempDewpointWater temp
2014-Jul-21 19:07N 53°34' E 014°36'3 5.8
2014-Jul-21 18:33N 53°37' E 014°35'9 8.7
2014-Jul-21 17:33N 53°44' E 014°26'9 8.9
2014-Jul-21 16:33N 53°51' E 014°17'7 6.5
2014-Jul-21 15:33N 53°57' E 014°15'0 0.5
2014-Jul-21 14:34N 53°58' E 014°14'0 0.0
2014-Jul-21 13:33N 53°58' E 014°14'0 0.0
2014-Jul-21 12:33N 53°58' E 014°14'0 0.0
2014-Jul-21 11:33N 53°58' E 014°14'0 0.0
2014-Jul-21 10:33N 53°58' E 014°14'0 0.0
2014-Jul-21 09:33N 53°58' E 014°14'0 0.0
2014-Jul-21 08:33N 53°58' E 014°14'0 0.0
2014-Jul-21 07:33N 53°58' E 014°14'0 0.0
2014-Jul-21 06:33N 53°58' E 014°14'0 0.2
2014-Jul-21 05:33N 53°58' E 014°14'7 7.0
2014-Jul-21 04:33N 54°05' E 014°14'8 8.3
2014-Jul-21 03:33N 54°13' E 014°11'7 7.1
2014-Jul-21 02:33N 54°18' E 014°03'7 6.9
2014-Jul-21 01:33N 54°23' E 013°55'7 7.0
2014-Jul-21 00:33N 54°29' E 013°49'7 6.6
2014-Jul-20 23:33N 54°35' E 013°44'6 6.2
2014-Jul-20 22:33N 54°40' E 013°37'6 6.3
2014-Jul-20 21:33N 54°44' E 013°29'6 6.5
2014-Jul-20 20:33N 54°44' E 013°17'7 7.2
2014-Jul-20 19:33N 54°44' E 013°05'8 8.0
2014-Jul-20 18:33N 54°45' E 012°51'8 7.6
2014-Jul-20 17:33N 54°43' E 012°39'8 8.4
2014-Jul-20 16:33N 54°37' E 012°29'8 7.9
2014-Jul-20 15:33N 54°32' E 012°18'8 7.9
2014-Jul-20 14:33N 54°25' E 012°11'7 7.5
2014-Jul-20 13:33N 54°24' E 011°58'8 7.8
2014-Jul-20 12:33N 54°25' E 011°45'8 7.8
2014-Jul-20 11:33N 54°29' E 011°33'8 7.7
2014-Jul-20 10:33N 54°32' E 011°21'7 6.9
2014-Jul-20 09:33N 54°35' E 011°11'8 7.6
2014-Jul-20 08:33N 54°35' E 010°57'9 8.6
2014-Jul-20 07:33N 54°34' E 010°43'8 8.2
2014-Jul-20 06:33N 54°32' E 010°29'8 8.2
2014-Jul-20 05:33N 54°28' E 010°16'8 5.2
2014-Jul-20 04:04N 54°22' E 010°08'1 1.9
2014-Jul-20 03:33N 54°22' E 010°07'10 6.7
2014-Jul-20 02:03N 54°22' E 009°50'4 8.1
2014-Jul-20 01:33N 54°20' E 009°44'8 7.6
2014-Jul-20 00:33N 54°14' E 009°36'8 8.1
2014-Jul-19 23:33N 54°10' E 009°24'7 6.8
2014-Jul-19 22:33N 54°04' E 009°19'6 5.7
2014-Jul-19 21:28N 53°58' E 009°15'6 5.9
2014-Jul-19 20:30N 53°54' E 009°09'2 1.9
2014-Jul-19 19:33N 53°53' E 009°06'7 7.1
2014-Jul-19 18:33N 53°51' E 008°55'9 9.0
2014-Jul-19 17:33N 53°55' E 008°41'9 9.3
2014-Jul-19 16:33N 53°59' E 008°27'10 9.4
2014-Jul-19 15:33N 53°60' E 008°11'51 9.9
2014-Jul-19 10:21N 53°48' E 006°46'7 8.5
2014-Jul-19 09:33N 53°46' E 006°35'8 7.7
2014-Jul-19 08:33N 53°44' E 006°22'7 6.9
2014-Jul-19 07:33N 53°42' E 006°11'7 6.9
2014-Jul-19 06:33N 53°40' E 006°00'7 6.8
2014-Jul-19 05:33N 53°38' E 005°49'7 7.1
2014-Jul-19 04:33N 53°36' E 005°38'7 7.4
2014-Jul-19 03:33N 53°34' E 005°26'8 7.7
2014-Jul-19 02:33N 53°31' E 005°14'8 8.2
2014-Jul-19 01:33N 53°28' E 005°01'9 8.8
2014-Jul-19 00:33N 53°25' E 004°48'9 8.6
2014-Jul-18 23:33N 53°18' E 004°39'10 9.9
2014-Jul-18 22:33N 53°09' E 004°31'1010.1
2014-Jul-18 21:33N 53°00' E 004°23'10 9.8
2014-Jul-18 20:33N 52°51' E 004°16'9 8.4
2014-Jul-18 19:32N 52°44' E 004°09'2 2.1
2014-Jul-18 18:31N 52°42' E 004°10'1 0.7
2014-Jul-18 17:33N 52°41' E 004°11'4 3.6
2014-Jul-18 16:33N 52°39' E 004°16'7 6.8
2014-Jul-18 15:33N 52°33' E 004°22'7 7.0
2014-Jul-18 14:34N 52°28' E 004°30'5 4.6
2014-Jul-18 13:33N 52°28' E 004°38'1 1.4
2014-Jul-18 12:32N 52°28' E 004°40'0 0.0
2014-Jul-18 11:32N 52°28' E 004°40'0 0.0
2014-Jul-18 10:32N 52°28' E 004°40'0 0.0
2014-Jul-18 09:32N 52°28' E 004°40'0 0.0
2014-Jul-18 08:32N 52°28' E 004°40'0 0.0
2014-Jul-18 07:29N 52°28' E 004°40'0 0.0
2014-Jul-18 06:32N 52°28' E 004°40'0 0.0
2014-Jul-18 05:32N 52°28' E 004°40'0 0.0
2014-Jul-18 04:32N 52°28' E 004°40'0 0.0
2014-Jul-18 03:32N 52°28' E 004°40'0 0.0
2014-Jul-18 02:32N 52°28' E 004°40'0 0.0
2014-Jul-18 01:32N 52°28' E 004°40'0 0.0
2014-Jul-18 00:32N 52°28' E 004°40'0 0.0
2014-Jul-17 23:32N 52°28' E 004°40'0 0.0
2014-Jul-17 22:32N 52°28' E 004°40'0 0.0
2014-Jul-17 21:32N 52°28' E 004°40'0 0.0
2014-Jul-17 20:32N 52°28' E 004°40'0 0.0
2014-Jul-17 19:32N 52°28' E 004°40'0 0.0
2014-Jul-17 18:29N 52°28' E 004°40'0 0.0
2014-Jul-17 17:29N 52°28' E 004°40'0 0.0
2014-Jul-17 16:32N 52°28' E 004°40'0 0.0
2014-Jul-17 15:31N 52°28' E 004°40'0 0.0
2014-Jul-17 14:31N 52°28' E 004°40'0 0.0
2014-Jul-17 13:28N 52°28' E 004°40'0 0.0
2014-Jul-17 12:31N 52°28' E 004°40'0 0.0
2014-Jul-17 11:31N 52°28' E 004°40'0 0.0
2014-Jul-17 10:31N 52°28' E 004°40'0 0.0
2014-Jul-17 09:31N 52°28' E 004°40'0 0.0
2014-Jul-17 08:31N 52°28' E 004°40'0 0.0
2014-Jul-17 07:31N 52°28' E 004°40'0 0.0
2014-Jul-17 06:31N 52°28' E 004°40'0 0.0
2014-Jul-17 05:31N 52°28' E 004°40'0 0.0
2014-Jul-17 04:31N 52°28' E 004°40'0 0.0
2014-Jul-17 03:31N 52°28' E 004°40'0 0.0
2014-Jul-17 02:31N 52°28' E 004°40'0 0.0
2014-Jul-17 01:31N 52°28' E 004°40'0 0.0
2014-Jul-17 00:31N 52°28' E 004°40'0 0.0
2014-Jul-16 23:31N 52°28' E 004°40'0 0.0
2014-Jul-16 22:31N 52°28' E 004°40'0 0.0
2014-Jul-16 21:31N 52°28' E 004°40'0 0.0
2014-Jul-16 20:31N 52°28' E 004°40'0 0.0
2014-Jul-16 19:31N 52°28' E 004°40'0 0.0
2014-Jul-16 18:31N 52°28' E 004°40'0 0.0
2014-Jul-16 17:31N 52°28' E 004°40'0 0.0
2014-Jul-16 16:31N 52°28' E 004°40'0 0.0
2014-Jul-16 15:31N 52°28' E 004°40'0 0.0
2014-Jul-16 14:31N 52°28' E 004°40'0 0.0
2014-Jul-16 13:28N 52°28' E 004°40'0 0.0
2014-Jul-16 12:31N 52°28' E 004°40'0 0.0
2014-Jul-16 11:31N 52°28' E 004°40'0 0.0
2014-Jul-16 10:31N 52°28' E 004°40'0 0.0
2014-Jul-16 09:31N 52°28' E 004°40'0 0.0
2014-Jul-16 08:31N 52°28' E 004°40'0 0.0
2014-Jul-16 07:31N 52°28' E 004°40'0 0.0
2014-Jul-16 06:33N 52°28' E 004°40'0 0.0
2014-Jul-16 05:33N 52°28' E 004°40'0 0.0
2014-Jul-16 04:33N 52°28' E 004°40'0 0.0
2014-Jul-16 03:33N 52°28' E 004°40'0 0.0
2014-Jul-16 02:33N 52°28' E 004°40'0 0.0
2014-Jul-16 01:33N 52°28' E 004°40'0 0.0
2014-Jul-16 00:33N 52°28' E 004°40'0 0.0
2014-Jul-15 23:33N 52°28' E 004°40'0 0.0
2014-Jul-15 22:33N 52°28' E 004°40'0 0.0
2014-Jul-15 21:33N 52°28' E 004°40'0 0.0
2014-Jul-15 20:33N 52°28' E 004°40'0 0.0
2014-Jul-15 19:33N 52°28' E 004°40'0 0.0
2014-Jul-15 18:33N 52°28' E 004°40'0 0.0
2014-Jul-15 17:33N 52°28' E 004°40'0 0.0
2014-Jul-15 16:33N 52°28' E 004°40'0 0.0
2014-Jul-15 15:33N 52°28' E 004°40'0 0.0
2014-Jul-15 14:33N 52°28' E 004°40'0 0.0
2014-Jul-15 13:33N 52°28' E 004°40'0 0.0
2014-Jul-15 12:33N 52°28' E 004°40'0 0.0
2014-Jul-15 11:33N 52°28' E 004°40'0 0.0
2014-Jul-15 10:33N 52°28' E 004°40'0 0.0
2014-Jul-15 09:33N 52°28' E 004°40'0 0.0
2014-Jul-15 08:33N 52°28' E 004°40'0 0.0
2014-Jul-15 07:33N 52°28' E 004°40'0 0.0
2014-Jul-15 06:33N 52°28' E 004°40'0 0.0
2014-Jul-15 05:33N 52°28' E 004°40'0 0.0
2014-Jul-15 04:33N 52°28' E 004°40'0 0.0
2014-Jul-15 03:33N 52°28' E 004°40'0 0.0
2014-Jul-15 02:33N 52°28' E 004°40'0 0.0
2014-Jul-15 01:33N 52°28' E 004°40'0 0.0
2014-Jul-15 00:33N 52°28' E 004°40'0 0.0
2014-Jul-14 23:33N 52°28' E 004°40'0 0.0
2014-Jul-14 22:33N 52°28' E 004°40'0 0.0
2014-Jul-14 21:33N 52°28' E 004°40'0 0.0
2014-Jul-14 20:32N 52°28' E 004°40'0 0.0
2014-Jul-14 19:32N 52°28' E 004°40'0 0.0
2014-Jul-14 18:32N 52°28' E 004°40'0 0.0
2014-Jul-14 17:32N 52°28' E 004°40'0 0.0
2014-Jul-14 16:32N 52°28' E 004°40'0 0.0
2014-Jul-14 15:32N 52°28' E 004°40'0 0.0
2014-Jul-14 14:32N 52°28' E 004°40'0 0.0
2014-Jul-14 13:29N 52°28' E 004°40'0 0.0
2014-Jul-14 12:32N 52°28' E 004°40'0 0.0
2014-Jul-14 11:32N 52°28' E 004°40'0 0.0
2014-Jul-14 10:32N 52°28' E 004°40'0 0.0
2014-Jul-14 09:32N 52°28' E 004°40'0 0.0
2014-Jul-14 08:32N 52°28' E 004°40'0 0.0
2014-Jul-14 07:32N 52°28' E 004°40'0 0.0
2014-Jul-14 06:29N 52°28' E 004°40'0 0.0
2014-Jul-14 05:32N 52°28' E 004°40'0 0.0
2014-Jul-14 04:32N 52°28' E 004°40'0 0.0
2014-Jul-14 03:32N 52°28' E 004°40'0 0.0
2014-Jul-14 02:29N 52°28' E 004°40'0 0.0
2014-Jul-14 01:32N 52°28' E 004°40'0 0.0
2014-Jul-14 00:32N 52°28' E 004°40'0 0.0
2014-Jul-13 23:32N 52°28' E 004°40'0 0.0
2014-Jul-13 22:32N 52°28' E 004°40'0 0.0
2014-Jul-13 21:32N 52°28' E 004°40'0 0.0
2014-Jul-13 20:32N 52°28' E 004°40'0 0.0
2014-Jul-13 19:32N 52°28' E 004°40'0 0.0
2014-Jul-13 18:32N 52°28' E 004°40'0 0.0
2014-Jul-13 17:32N 52°28' E 004°40'0 0.0
2014-Jul-13 16:32N 52°28' E 004°40'0 0.0
2014-Jul-13 15:32N 52°28' E 004°40'0 0.0
2014-Jul-13 14:32N 52°28' E 004°40'0 0.0
2014-Jul-13 13:32N 52°28' E 004°40'0 0.0
2014-Jul-13 12:32N 52°28' E 004°40'0 0.0
2014-Jul-13 11:31N 52°28' E 004°40'0 0.0
2014-Jul-13 10:31N 52°28' E 004°40'0 0.0
2014-Jul-13 09:31N 52°28' E 004°40'0 0.0
2014-Jul-13 08:31N 52°28' E 004°40'0 0.0
2014-Jul-13 07:31N 52°28' E 004°40'0 0.0
2014-Jul-13 06:31N 52°28' E 004°40'0 0.0
2014-Jul-13 05:31N 52°28' E 004°40'0 0.0
2014-Jul-13 04:28N 52°28' E 004°40'0 0.0
2014-Jul-13 03:31N 52°28' E 004°40'0 0.0
2014-Jul-13 02:31N 52°28' E 004°40'0 0.0
2014-Jul-13 01:28N 52°28' E 004°40'0 0.0
2014-Jul-13 00:31N 52°28' E 004°40'0 0.0
2014-Jul-12 23:31N 52°28' E 004°40'0 0.0
2014-Jul-12 22:31N 52°28' E 004°40'0 0.0
2014-Jul-12 21:31N 52°28' E 004°40'0 0.0
2014-Jul-12 20:31N 52°28' E 004°40'0 0.0
2014-Jul-12 19:31N 52°28' E 004°40'0 0.0
2014-Jul-12 18:31N 52°28' E 004°40'0 0.0
2014-Jul-12 17:31N 52°28' E 004°40'0 0.0
2014-Jul-12 16:31N 52°28' E 004°40'0 0.0
2014-Jul-12 15:31N 52°28' E 004°40'0 0.0
2014-Jul-12 14:31N 52°28' E 004°40'0 0.0
2014-Jul-12 13:31N 52°28' E 004°40'0 0.0
2014-Jul-12 12:31N 52°28' E 004°40'0 0.0
2014-Jul-12 11:31N 52°28' E 004°40'0 0.0
2014-Jul-12 10:31N 52°28' E 004°40'0 0.0
2014-Jul-12 09:31N 52°28' E 004°40'0 0.0
2014-Jul-12 08:31N 52°28' E 004°40'0 0.1
2014-Jul-12 07:33N 52°28' E 004°40'3 2.5
2014-Jul-12 06:33N 52°28' E 004°36'3 2.9
2014-Jul-12 05:33N 52°28' E 004°31'3 3.1
2014-Jul-12 04:33N 52°30' E 004°27'2 1.7
2014-Jul-12 03:33N 52°32' E 004°27'1 0.7
2014-Jul-12 02:33N 52°32' E 004°27'0 0.4
2014-Jul-12 01:33N 52°33' E 004°27'2 2.3
2014-Jul-12 00:33N 52°33' E 004°23'3 2.6
2014-Jul-11 23:33N 52°35' E 004°21'3 3.4
2014-Jul-11 22:33N 52°38' E 004°17'4 3.7
2014-Jul-11 21:33N 52°42' E 004°16'3 2.9
2014-Jul-11 20:28N 52°44' E 004°14'1 1.3
2014-Jul-11 19:32N 52°45' E 004°14'  

Dump ship's entire track history